Memorial Field
KHOT : now visible

Airfield :











YOU CAN JOIN US ON...

 
LOGIN :

Register | Disclaimer

   EN    FR    IT 

 









Legend :    VFR   Marginal VFR   IFR   Intensive IFR   Very Intensive IFR
Visi :
Ceiling :
>= 8 km
>= 3000ft
5 to 8 km
1000 to 3000 ft
1500m to 5 km
500 to 1000 ft
800 to 1500m
200 to 500 ft
< 800m
< 200 ft
Symbols :   Thunderstorms  Fog  Heavy snow  Heavy precipitations  Wind > 20 kt






- Airport Elevation : 540 ft
- IATA code : HOT


KHOT - Memorial Field

CURRENT METAR :
  • 082035Z AUTO 16005KT 10SM SCT013 11/07 A2994 RMK AO2 T01060067

EXPIRED METARs :
  • 082003Z AUTO 17005KT 10SM BKN011 11/07 A2993 RMK AO2 T01060067
  • 081953Z AUTO 15007KT 10SM SCT013 11/07 A2995 RMK AO2 SLP140 T01060067
  • 081937Z AUTO 17007KT 10SM SCT011 11/07 A2996 RMK AO2 T01060067
  • 081922Z AUTO 16005KT 10SM BKN010 11/07 A2997 RMK AO2 PRESFR T01060067
  • 081853Z AUTO 18006KT 10SM OVC009 09/07 A3000 RMK AO2 CIG 008V014 SLP158 T00940067
  • 081753Z AUTO VRB06KT 7SM OVC005 09/07 A3003 RMK AO2 PRESFR SLP170 T00890067 10089 20050 56024

TAF KHOT
Valid from the 08 at 20:00 until the 09 at 18:00 UTC


081956Z 0820/0918 17008KT P6SM OVC015
FM082100 16008KT P6SM OVC100 WS020/20042KT
FM090500 19009G16KT P6SM OVC025 WS020/22040KT
FM090900 20010G18KT P6SM OVC005 WS020/22042KT
FM091400 22009G15KT P6SM OVC045



MET'MAP, your aeronautical weather chart ! - Copyright ORBIFLY December 2007 - Disclaimer

ORBIFLY MET'MAP TEAM :

Programming & Development : Alexandra Zaïnal
Concept & original design : Baudouin d'Aumeries
Assistance for programming : Marc-Olivier Méhu
Technical & hardware support : Manuel Goepfert

Contact : metmap@orbifly.com




SOURCES & CREDITS :

   NOAA       Earth
Advisory